createdAt,value
2022-08-05T00:01:36.196Z,39.76
2022-08-05T00:04:18.553Z,39.74
2022-08-05T00:06:47.279Z,39.96
2022-08-05T00:09:19.586Z,39.59
2022-08-05T00:11:49.383Z,39.92
2022-08-05T00:14:28.915Z,39.94
2022-08-05T00:16:58.223Z,40.19
2022-08-05T00:19:33.216Z,40.06
2022-08-05T00:22:01.359Z,40.17
2022-08-05T00:24:30.658Z,40.21
2022-08-05T00:26:59.317Z,40.24
2022-08-05T00:29:27.460Z,40.64
2022-08-05T00:32:13.109Z,40.44
2022-08-05T00:35:04.280Z,40.04
2022-08-05T00:37:35.454Z,40.15
2022-08-05T00:40:28.363Z,40.08
2022-08-05T00:42:58.106Z,40.38
2022-08-05T00:45:37.971Z,40.28
2022-08-05T00:48:07.002Z,40.73
2022-08-05T00:50:34.598Z,40.79
2022-08-05T00:53:02.550Z,40.93
2022-08-05T00:55:42.130Z,41.22
2022-08-05T00:58:13.555Z,41.10
2022-08-05T01:00:41.043Z,41.21
2022-08-05T01:03:12.696Z,41.23
2022-08-05T01:05:50.435Z,41.05
2022-08-05T01:08:40.332Z,41.84
2022-08-05T01:11:33.884Z,42.08
2022-08-05T01:14:10.034Z,41.84
2022-08-05T01:16:49.206Z,41.50
2022-08-05T01:19:30.201Z,41.10
2022-08-05T01:22:31.870Z,41.04
2022-08-05T01:25:04.614Z,40.78
2022-08-05T01:27:55.549Z,41.14
2022-08-05T01:30:34.692Z,41.23
2022-08-05T01:33:06.280Z,41.42
2022-08-05T01:35:51.919Z,41.25
2022-08-05T01:38:24.694Z,41.04
2022-08-05T01:40:57.137Z,40.89
2022-08-05T01:43:24.630Z,41.03
2022-08-05T01:45:56.101Z,41.49
2022-08-05T01:48:26.420Z,41.50
2022-08-05T01:50:55.277Z,41.35
2022-08-05T01:53:42.203Z,41.61
2022-08-05T01:58:09.313Z,41.72
2022-08-05T01:59:03.610Z,41.67
2022-08-05T02:01:40.106Z,41.61
2022-08-05T02:04:09.368Z,41.25
2022-08-05T02:06:38.959Z,41.31
2022-08-05T02:09:07.449Z,41.44
2022-08-05T02:11:52.572Z,41.74
2022-08-05T02:14:29.223Z,41.45
2022-08-05T02:17:05.376Z,41.64
2022-08-05T02:19:41.400Z,41.41
2022-08-05T02:22:26.528Z,41.89
2022-08-05T02:25:02.598Z,41.48
2022-08-05T02:27:58.532Z,41.52
2022-08-05T02:30:20.223Z,41.61
2022-08-05T02:32:51.700Z,41.50
2022-08-05T02:35:27.723Z,41.83
2022-08-05T02:37:56.786Z,41.78
2022-08-05T02:40:27.626Z,41.57
2022-08-05T02:42:56.475Z,41.56
2022-08-05T02:45:25.331Z,41.85
2022-08-05T02:48:07.609Z,42.03
2022-08-05T02:50:44.029Z,41.83
2022-08-05T02:53:18.928Z,41.69
2022-08-05T02:55:59.667Z,41.65
2022-08-05T02:58:30.089Z,41.73
2022-08-05T03:01:01.970Z,41.50
2022-08-05T03:03:33.703Z,41.75
2022-08-05T03:06:56.736Z,41.20
2022-08-05T03:09:05.204Z,41.34
2022-08-05T03:11:54.642Z,41.23
2022-08-05T03:14:21.542Z,41.50
2022-08-05T03:16:48.449Z,41.61
2022-08-05T03:19:33.056Z,41.55
2022-08-05T03:22:01.480Z,41.09
2022-08-05T03:24:30.826Z,41.33
2022-08-05T03:27:00.052Z,41.44
2022-08-05T03:29:45.301Z,41.35
2022-08-05T03:32:15.533Z,41.81
2022-08-05T03:34:51.178Z,41.85
2022-08-05T03:37:23.704Z,42.02
2022-08-05T03:39:59.160Z,42.17
2022-08-05T03:42:28.882Z,42.37
2022-08-05T03:44:55.849Z,42.57
2022-08-05T03:47:24.392Z,42.52
2022-08-05T03:49:52.620Z,42.57
2022-08-05T03:52:39.330Z,42.79
2022-08-05T03:56:06.120Z,42.33
2022-08-05T03:58:12.720Z,42.04
2022-08-05T04:00:42.106Z,42.23
2022-08-05T04:03:28.237Z,42.36
2022-08-05T04:05:59.085Z,42.13
2022-08-05T04:08:35.340Z,42.21
2022-08-05T04:11:05.246Z,42.92
2022-08-05T04:13:50.909Z,42.77
2022-08-05T04:16:24.338Z,43.21
2022-08-05T04:18:54.042Z,43.21
2022-08-05T04:22:10.401Z,43.19
2022-08-05T04:24:09.023Z,43.54
2022-08-05T04:26:36.020Z,43.47
2022-08-05T04:29:07.278Z,42.91
2022-08-05T04:31:38.473Z,42.93
2022-08-05T04:34:31.402Z,43.74
2022-08-05T04:36:52.148Z,43.30
2022-08-05T04:39:19.975Z,43.59
2022-08-05T04:41:48.253Z,43.91
2022-08-05T04:44:15.145Z,43.75
2022-08-05T04:46:48.549Z,44.52
2022-08-05T04:49:15.642Z,44.16
2022-08-05T04:51:45.339Z,44.73
2022-08-05T04:54:12.432Z,44.40
2022-08-05T04:56:39.635Z,44.74
2022-08-05T04:59:21.680Z,44.43
2022-08-05T05:02:07.590Z,44.34
2022-08-05T05:04:38.316Z,44.30
2022-08-05T05:07:10.690Z,44.60
2022-08-05T05:09:38.036Z,44.42
2022-08-05T05:12:06.144Z,44.44
2022-08-05T05:14:33.078Z,43.80
2022-08-05T05:17:03.728Z,43.91
2022-08-05T05:19:37.006Z,43.61
2022-08-05T05:22:24.646Z,43.92
2022-08-05T05:24:59.890Z,43.52
2022-08-05T05:27:41.372Z,44.37
2022-08-05T05:30:15.373Z,44.82
2022-08-05T05:32:55.460Z,44.03
2022-08-05T05:35:23.110Z,44.37
2022-08-05T05:38:00.348Z,44.86
2022-08-05T05:40:29.526Z,44.70
2022-08-05T05:42:57.364Z,44.71
2022-08-05T05:45:24.737Z,44.58
2022-08-05T05:48:06.679Z,44.80
2022-08-05T05:50:41.074Z,44.50
2022-08-05T05:53:21.424Z,44.29
2022-08-05T05:55:51.507Z,44.16
2022-08-05T05:58:30.203Z,43.83
2022-08-05T06:01:02.440Z,44.36
2022-08-05T06:04:00.971Z,44.25
2022-08-05T06:06:28.106Z,44.33
2022-08-05T06:08:58.424Z,44.41
2022-08-05T06:11:25.280Z,43.63
2022-08-05T06:13:54.113Z,43.05
2022-08-05T06:16:30.901Z,43.48
2022-08-05T06:19:01.982Z,43.46
2022-08-05T06:21:37.237Z,42.99
2022-08-05T06:24:12.133Z,43.00
2022-08-05T06:26:51.256Z,42.75
2022-08-05T06:29:25.248Z,42.71
2022-08-05T06:32:17.286Z,42.93
2022-08-05T06:34:53.585Z,43.00
2022-08-05T06:37:56.424Z,43.06
2022-08-05T06:40:11.049Z,43.04
2022-08-05T06:42:39.754Z,42.66
2022-08-05T06:45:08.705Z,41.82
2022-08-05T06:48:36.902Z,41.83
2022-08-05T06:50:22.772Z,42.23
2022-08-05T06:52:58.706Z,42.15
2022-08-05T06:55:30.412Z,41.92
2022-08-05T06:58:20.212Z,40.99
2022-08-05T07:00:50.228Z,41.12
2022-08-05T07:03:17.511Z,40.30
2022-08-05T07:05:47.770Z,40.33
2022-08-05T07:08:16.380Z,40.76
2022-08-05T07:10:52.909Z,39.51
2022-08-05T07:13:57.786Z,38.90
2022-08-05T07:18:00.303Z,39.36
2022-08-05T07:20:31.336Z,39.20
2022-08-05T07:22:28.832Z,39.56
2022-08-05T07:25:23.686Z,38.62
2022-08-05T07:27:57.770Z,38.21
2022-08-05T07:30:33.947Z,38.41
2022-08-05T07:33:05.328Z,37.72
2022-08-05T07:36:04.134Z,38.04
2022-08-05T07:38:32.969Z,37.96
2022-08-05T07:42:07.277Z,37.48
2022-08-05T07:43:58.463Z,37.66
2022-08-05T07:46:31.053Z,37.13
2022-08-05T07:49:02.311Z,37.26
2022-08-05T07:51:40.835Z,36.71
2022-08-05T07:54:22.037Z,36.37
2022-08-05T07:57:02.057Z,36.58
2022-08-05T07:59:40.940Z,36.39
2022-08-05T08:02:16.694Z,36.18
2022-08-05T08:04:50.434Z,36.09
2022-08-05T08:07:22.388Z,36.31
2022-08-05T08:09:52.386Z,35.60
2022-08-05T08:12:36.848Z,35.08
2022-08-05T08:15:15.804Z,35.16
2022-08-05T08:17:49.629Z,34.71
2022-08-05T08:20:43.944Z,34.50
2022-08-05T08:23:07.652Z,34.45
2022-08-05T08:26:00.578Z,34.85
2022-08-05T08:28:36.482Z,35.43
2022-08-05T08:31:04.500Z,34.80
2022-08-05T08:33:36.060Z,34.32
2022-08-05T08:36:29.431Z,35.02
2022-08-05T08:38:55.368Z,35.30
2022-08-05T08:41:26.255Z,34.29
2022-08-05T08:45:19.669Z,34.47
2022-08-05T08:46:58.220Z,34.30
2022-08-05T08:50:14.490Z,34.38
2022-08-05T08:52:19.804Z,32.62
2022-08-05T08:54:48.025Z,32.83
2022-08-05T08:57:14.910Z,33.35
2022-08-05T08:59:47.416Z,33.36
2022-08-05T09:02:19.182Z,33.53
2022-08-05T09:04:58.467Z,33.72
2022-08-05T09:07:39.810Z,33.81
2022-08-05T09:10:21.800Z,33.70
2022-08-05T09:12:54.870Z,32.66
2022-08-05T09:15:23.416Z,32.21
2022-08-05T09:17:52.894Z,32.38
2022-08-05T09:20:36.552Z,32.07
2022-08-05T09:23:19.666Z,32.09
2022-08-05T09:26:06.496Z,31.82
2022-08-05T09:28:37.787Z,29.23
2022-08-05T09:31:43.508Z,29.34
2022-08-05T09:33:55.111Z,29.99
2022-08-05T09:36:27.729Z,29.52
2022-08-05T09:39:18.012Z,28.83
2022-08-05T09:42:03.808Z,28.12
2022-08-05T09:44:50.478Z,28.13
2022-08-05T09:47:20.561Z,28.57
2022-08-05T09:50:00.609Z,28.78
2022-08-05T09:52:34.544Z,28.60
2022-08-05T09:55:57.213Z,27.90
2022-08-05T09:57:58.713Z,27.91
2022-08-05T10:00:27.644Z,27.19
2022-08-05T10:02:57.985Z,26.48
2022-08-05T10:05:28.088Z,25.93
2022-08-05T10:08:35.947Z,25.50
2022-08-05T10:10:53.964Z,25.30
2022-08-05T10:13:27.529Z,25.18
2022-08-05T10:16:37.770Z,24.82
2022-08-05T10:19:10.067Z,25.07
2022-08-05T10:21:40.228Z,24.95
2022-08-05T10:24:13.491Z,24.91
2022-08-05T10:26:51.517Z,24.21
2022-08-05T10:29:23.594Z,24.42
2022-08-05T10:32:52.563Z,24.07
2022-08-05T10:34:37.458Z,24.41
2022-08-05T10:37:08.282Z,24.05
2022-08-05T10:39:59.180Z,23.54
2022-08-05T10:42:34.353Z,23.77
2022-08-05T10:45:02.030Z,23.94
2022-08-05T10:48:29.397Z,24.31
2022-08-05T10:51:03.387Z,23.41
2022-08-05T10:53:38.223Z,24.07
2022-08-05T10:56:21.607Z,23.52
2022-08-05T10:58:55.024Z,23.43
2022-08-05T11:01:54.647Z,23.04
2022-08-05T11:04:27.860Z,22.69
2022-08-05T11:06:57.711Z,23.33
2022-08-05T11:09:39.066Z,23.26
2022-08-05T11:12:55.024Z,22.37
2022-08-05T11:16:00.236Z,22.28
2022-08-05T11:18:34.091Z,22.68
2022-08-05T11:21:11.322Z,22.50
2022-08-05T11:24:04.503Z,21.88
2022-08-05T11:26:32.932Z,22.10
2022-08-05T11:29:11.798Z,22.08
2022-08-05T11:31:54.356Z,22.05
2022-08-05T11:34:39.958Z,21.49
2022-08-05T11:38:30.852Z,21.48
2022-08-05T11:41:00.625Z,21.05
2022-08-05T11:44:00.722Z,21.31
2022-08-05T11:46:32.252Z,20.99
2022-08-05T11:49:00.666Z,20.85
2022-08-05T11:51:43.545Z,20.98
2022-08-05T11:54:13.893Z,20.88
2022-08-05T11:56:50.260Z,20.65
2022-08-05T11:59:26.603Z,20.47
2022-08-05T12:02:01.752Z,20.62
2022-08-05T12:04:37.610Z,20.09
2022-08-05T12:07:11.978Z,19.86
2022-08-05T12:09:53.559Z,20.33
2022-08-05T12:12:25.781Z,19.46
2022-08-05T12:14:52.604Z,19.52
2022-08-05T12:18:04.310Z,19.30
2022-08-05T12:20:25.340Z,19.15
2022-08-05T12:23:09.559Z,18.78
2022-08-05T12:25:56.455Z,18.99
2022-08-05T12:28:34.011Z,18.95
2022-08-05T12:31:01.948Z,18.94
2022-08-05T12:33:37.023Z,18.57
2022-08-05T12:36:09.449Z,18.62
2022-08-05T12:38:40.358Z,18.44
2022-08-05T12:41:17.216Z,18.25
2022-08-05T12:44:04.847Z,18.36
2022-08-05T12:46:33.626Z,18.64
2022-08-05T12:49:13.151Z,18.44
2022-08-05T12:52:13.480Z,18.31
2022-08-05T12:54:49.801Z,17.85
2022-08-05T12:57:17.821Z,17.75
2022-08-05T13:02:04.440Z,17.85
2022-08-05T13:02:39.941Z,17.70
2022-08-05T13:05:07.508Z,17.49
2022-08-05T13:07:59.253Z,17.59
2022-08-05T13:10:24.885Z,17.38
2022-08-05T13:12:58.241Z,17.02
2022-08-05T13:15:41.957Z,17.19
2022-08-05T13:18:19.526Z,16.93
2022-08-05T13:20:47.130Z,16.95
2022-08-05T13:23:13.756Z,17.00
2022-08-05T13:25:51.982Z,16.93
2022-08-05T13:28:25.817Z,16.61
2022-08-05T13:30:53.191Z,16.90
2022-08-05T13:34:21.833Z,16.12
2022-08-05T13:36:10.261Z,15.94
2022-08-05T13:38:38.389Z,16.20
2022-08-05T13:41:09.807Z,15.92
2022-08-05T13:43:44.988Z,15.55
2022-08-05T13:46:37.956Z,15.92
2022-08-05T13:49:10.420Z,16.33
2022-08-05T13:51:41.268Z,17.03
2022-08-05T13:54:15.177Z,17.53
2022-08-05T13:56:51.605Z,18.19
2022-08-05T13:59:24.825Z,18.51
2022-08-05T14:01:59.096Z,18.68
2022-08-05T14:04:51.859Z,18.75
2022-08-05T14:07:59.894Z,19.30
2022-08-05T14:10:28.991Z,19.37
2022-08-05T14:12:58.889Z,20.42
2022-08-05T14:16:07.635Z,20.15
2022-08-05T14:18:18.652Z,20.14
2022-08-05T14:20:54.546Z,20.43
2022-08-05T14:23:25.134Z,20.43
2022-08-05T14:25:58.578Z,20.73
2022-08-05T14:28:29.623Z,20.43
2022-08-05T14:30:58.312Z,20.62
2022-08-05T14:33:25.450Z,20.98
2022-08-05T14:35:54.487Z,20.64
2022-08-05T14:38:32.168Z,20.88
2022-08-05T14:41:00.369Z,21.09
2022-08-05T14:43:59.107Z,20.91
2022-08-05T14:46:13.857Z,20.98
2022-08-05T14:48:40.780Z,21.57
2022-08-05T14:51:08.366Z,21.66
2022-08-05T14:53:44.377Z,21.81
2022-08-05T14:56:11.854Z,21.13
2022-08-05T14:58:47.756Z,21.53
2022-08-05T15:01:24.336Z,21.55
2022-08-05T15:04:11.532Z,21.48
2022-08-05T15:06:38.824Z,21.82
2022-08-05T15:09:07.305Z,22.11
2022-08-05T15:11:51.540Z,21.38
2022-08-05T15:14:35.551Z,22.22
2022-08-05T15:17:09.907Z,21.94
2022-08-05T15:19:55.022Z,22.29
2022-08-05T15:22:22.145Z,21.89
2022-08-05T15:24:54.297Z,22.00
2022-08-05T15:27:20.973Z,22.00
2022-08-05T15:29:47.631Z,22.12
2022-08-05T15:32:16.412Z,22.10
2022-08-05T15:34:43.361Z,22.47
2022-08-05T15:37:14.717Z,23.23
2022-08-05T15:41:02.072Z,22.89
2022-08-05T15:42:56.868Z,22.62
2022-08-05T15:45:18.673Z,22.55
2022-08-05T15:47:49.829Z,22.36
2022-08-05T15:50:21.080Z,22.61
2022-08-05T15:52:55.020Z,23.03
2022-08-05T15:55:24.608Z,23.04
2022-08-05T15:57:52.258Z,23.26
2022-08-05T16:00:26.502Z,23.35
2022-08-05T16:03:07.586Z,23.52
2022-08-05T16:05:34.379Z,23.57
2022-08-05T16:08:05.922Z,23.40
2022-08-05T16:10:32.791Z,23.34
2022-08-05T16:12:59.437Z,23.59
2022-08-05T16:15:32.652Z,23.15
2022-08-05T16:18:00.742Z,23.49
2022-08-05T16:20:31.197Z,23.13
2022-08-05T16:22:59.198Z,23.59
2022-08-05T16:25:32.338Z,23.35
2022-08-05T16:28:06.498Z,23.30
2022-08-05T16:30:36.659Z,22.78
2022-08-05T16:33:03.506Z,22.80
2022-08-05T16:35:33.530Z,23.20
2022-08-05T16:38:18.331Z,23.00
2022-08-05T16:41:00.500Z,23.06
2022-08-05T16:43:33.685Z,22.81
2022-08-05T16:46:07.434Z,23.33
2022-08-05T16:48:48.979Z,23.02
2022-08-05T16:51:16.296Z,22.79
2022-08-05T16:54:05.178Z,22.88
2022-08-05T16:56:33.671Z,23.20
2022-08-05T16:59:07.692Z,23.02
2022-08-05T17:01:52.778Z,22.76
2022-08-05T17:04:21.341Z,23.15
2022-08-05T17:06:53.413Z,23.32
2022-08-05T17:09:20.654Z,23.00
2022-08-05T17:11:50.838Z,23.10
2022-08-05T17:14:34.164Z,23.08
2022-08-05T17:17:15.003Z,22.80
2022-08-05T17:19:47.062Z,23.46
2022-08-05T17:22:25.595Z,23.23
2022-08-05T17:24:58.058Z,23.44
2022-08-05T17:27:27.148Z,23.61
2022-08-05T17:30:00.836Z,23.70
2022-08-05T17:32:29.624Z,24.08
2022-08-05T17:34:58.174Z,24.03
2022-08-05T17:37:39.508Z,24.34
2022-08-05T17:40:17.467Z,24.96
2022-08-05T17:42:51.905Z,24.86
2022-08-05T17:45:22.437Z,25.31
2022-08-05T17:47:55.081Z,25.04
2022-08-05T17:50:30.031Z,25.32
2022-08-05T17:53:02.373Z,25.72
2022-08-05T17:55:37.639Z,25.72
2022-08-05T17:58:10.927Z,26.51
2022-08-05T18:00:45.236Z,26.88
2022-08-05T18:03:39.165Z,26.72
2022-08-05T18:06:05.910Z,27.00
2022-08-05T18:08:38.365Z,26.89
2022-08-05T18:11:07.357Z,27.36
2022-08-05T18:13:36.848Z,27.44
2022-08-05T18:16:13.641Z,27.33
2022-08-05T18:18:41.509Z,28.01
2022-08-05T18:21:19.980Z,28.23
2022-08-05T18:23:49.631Z,28.14
2022-08-05T18:26:29.322Z,28.34
2022-08-05T18:28:58.746Z,28.41
2022-08-05T18:31:25.588Z,28.64
2022-08-05T18:33:59.782Z,28.70
2022-08-05T18:36:29.826Z,29.40
2022-08-05T18:38:56.830Z,29.02
2022-08-05T18:41:54.956Z,29.62
2022-08-05T18:44:11.363Z,29.88
2022-08-05T18:46:41.284Z,29.50
2022-08-05T18:49:30.543Z,30.01
2022-08-05T18:52:32.852Z,30.15
2022-08-05T18:55:00.342Z,29.98
2022-08-05T18:57:26.924Z,30.12
2022-08-05T19:00:20.004Z,30.39
2022-08-05T19:02:47.958Z,30.55
2022-08-05T19:06:11.890Z,30.81
2022-08-05T19:08:02.828Z,31.05
2022-08-05T19:10:30.465Z,31.15
2022-08-05T19:12:57.379Z,31.21
2022-08-05T19:15:58.350Z,30.95
2022-08-05T19:18:21.052Z,31.02
2022-08-05T19:20:53.702Z,31.29
2022-08-05T19:24:03.940Z,31.33
2022-08-05T19:26:09.347Z,31.36
2022-08-05T19:28:42.350Z,30.90
2022-08-05T19:31:13.230Z,31.11
2022-08-05T19:33:40.624Z,31.26
2022-08-05T19:36:16.884Z,31.14
2022-08-05T19:38:45.104Z,31.52
2022-08-05T19:41:11.944Z,31.12
2022-08-05T19:44:06.101Z,31.20
2022-08-05T19:46:29.269Z,31.29
2022-08-05T19:48:57.532Z,31.07
2022-08-05T19:51:56.386Z,31.58
2022-08-05T19:54:27.209Z,31.50
2022-08-05T19:56:58.322Z,31.50
2022-08-05T20:00:00.210Z,31.74
2022-08-05T20:02:12.807Z,31.23
2022-08-05T20:04:42.976Z,31.38
2022-08-05T20:07:13.633Z,31.41
2022-08-05T20:09:54.709Z,31.95
2022-08-05T20:12:24.794Z,31.54
2022-08-05T20:14:52.984Z,31.72
2022-08-05T20:17:23.550Z,31.96
2022-08-05T20:19:56.567Z,32.09
2022-08-05T20:22:25.021Z,31.78
2022-08-05T20:24:54.315Z,32.14
2022-08-05T20:27:21.182Z,32.33
2022-08-05T20:29:58.263Z,32.20
2022-08-05T20:32:27.308Z,32.58
2022-08-05T20:34:54.889Z,32.52
2022-08-05T20:38:04.595Z,32.29
2022-08-05T20:40:09.141Z,32.66
2022-08-05T20:42:35.917Z,32.36
2022-08-05T20:45:03.082Z,32.28
2022-08-05T20:47:32.198Z,32.68
2022-08-05T20:49:59.736Z,32.45
2022-08-05T20:52:29.293Z,32.69
2022-08-05T20:55:54.197Z,32.67
2022-08-05T20:57:44.694Z,32.58
2022-08-05T21:00:41.086Z,32.71
2022-08-05T21:03:06.273Z,32.80
2022-08-05T21:05:48.413Z,33.16
2022-08-05T21:08:26.830Z,32.70
2022-08-05T21:11:10.315Z,33.19
2022-08-05T21:13:48.165Z,32.89
2022-08-05T21:16:29.997Z,33.12
2022-08-05T21:19:01.334Z,33.09
2022-08-05T21:21:44.194Z,33.04
2022-08-05T21:24:17.214Z,33.13
2022-08-05T21:26:53.480Z,33.03
2022-08-05T21:29:26.476Z,33.33
2022-08-05T21:31:58.419Z,33.53
2022-08-05T21:34:24.972Z,33.54
2022-08-05T21:36:51.671Z,33.40
2022-08-05T21:39:26.577Z,33.72
2022-08-05T21:42:01.660Z,34.09
2022-08-05T21:44:30.249Z,34.26
2022-08-05T21:46:59.437Z,34.09
2022-08-05T21:49:59.295Z,34.78
2022-08-05T21:52:16.292Z,34.97
2022-08-05T21:54:51.876Z,35.18
2022-08-05T21:57:31.228Z,35.51
2022-08-05T22:00:06.031Z,35.45
2022-08-05T22:02:33.948Z,35.50
2022-08-05T22:05:00.793Z,35.72
2022-08-05T22:07:39.740Z,36.20
2022-08-05T22:10:16.878Z,36.42
2022-08-05T22:12:44.783Z,36.60
2022-08-05T22:15:16.823Z,36.79
2022-08-05T22:18:03.657Z,36.90
2022-08-05T22:20:30.369Z,36.95
2022-08-05T22:23:21.358Z,37.16
2022-08-05T22:26:10.306Z,37.02
2022-08-05T22:28:41.190Z,37.47
2022-08-05T22:31:07.834Z,37.57
2022-08-05T22:33:56.824Z,37.72
2022-08-05T22:36:25.119Z,37.56
2022-08-05T22:38:52.156Z,37.88
2022-08-05T22:42:05.373Z,37.72
2022-08-05T22:44:08.942Z,38.06
2022-08-05T22:46:39.974Z,38.00
2022-08-05T22:50:17.072Z,37.62
2022-08-05T22:52:06.135Z,38.23
2022-08-05T22:54:35.472Z,38.07
2022-08-05T22:57:02.883Z,37.54
2022-08-05T22:59:53.540Z,37.67
2022-08-05T23:02:29.281Z,38.14
2022-08-05T23:04:58.381Z,37.61
2022-08-05T23:07:29.131Z,37.57
2022-08-05T23:10:01.439Z,37.88
2022-08-05T23:12:32.816Z,38.00
2022-08-05T23:15:01.392Z,38.54
2022-08-05T23:17:34.125Z,38.50
2022-08-05T23:20:10.109Z,38.46
2022-08-05T23:22:37.124Z,37.73
2022-08-05T23:25:04.422Z,38.13
2022-08-05T23:27:42.542Z,38.44
2022-08-05T23:30:21.381Z,38.33
2022-08-05T23:32:53.967Z,38.00
2022-08-05T23:35:20.725Z,38.15
2022-08-05T23:37:48.091Z,38.05
2022-08-05T23:40:14.867Z,38.68
2022-08-05T23:42:41.759Z,38.53
2022-08-05T23:45:15.765Z,38.95
2022-08-05T23:47:48.277Z,38.57
2022-08-05T23:50:15.415Z,38.96
2022-08-05T23:52:49.963Z,38.87
2022-08-05T23:55:18.747Z,38.77
2022-08-05T23:57:49.019Z,39.37
